Cordova, Maryland
Current Conditions -  °F | °C
As of 9:50 AM on Wednesday 26 Nov 2014 (Local Time) from KESN Reporting Station
Light Rain Light Rain  
Wind Chill: 33°   Ceiling: 600
Heat Index: 41°   Visibility: 2mi
Dew Point: 41°   Wind: 14mph
Humidity: 100%   Direction: 40°NE
Pressure: 30.04"   Gusts: 21mph
Location:  38.88°N, 76°W
Report Text: KESN 261450Z 04012G18KT 2SM -RA BR BKN006 OVC010 05/05 A3004
Loading
Personal Weather Stations






























Interactive Weather Map New forecast layout! Learn more

10-Day Weather Forecast

Advertisements
Track Severe Weather on mobile